createdAt,value
2017-10-23T00:04:14.348Z,3.60
2017-10-23T00:09:17.648Z,3.87
2017-10-23T00:14:20.915Z,3.63
2017-10-23T00:19:24.179Z,3.70
2017-10-23T00:24:27.468Z,3.53
2017-10-23T00:29:30.743Z,4.40
2017-10-23T00:34:34.044Z,3.30
2017-10-23T00:39:37.329Z,2.97
2017-10-23T00:44:40.592Z,3.60
2017-10-23T00:49:43.856Z,3.60
2017-10-23T00:54:47.299Z,4.20
2017-10-23T00:59:50.621Z,3.90
2017-10-23T01:04:53.910Z,2.90
2017-10-23T01:09:57.191Z,4.30
2017-10-23T01:15:00.444Z,3.70
2017-10-23T01:20:03.731Z,4.20
2017-10-23T01:25:07.008Z,3.60
2017-10-23T01:30:10.284Z,3.77
2017-10-23T01:35:13.549Z,3.33
2017-10-23T01:45:51.383Z,3.60
2017-10-23T01:50:54.648Z,3.47
2017-10-23T01:55:57.908Z,3.50
2017-10-23T02:01:01.248Z,3.80
2017-10-23T02:06:04.540Z,3.40
2017-10-23T02:11:08.595Z,3.20
2017-10-23T02:16:11.898Z,3.47
2017-10-23T02:21:15.928Z,3.03
2017-10-23T02:26:19.184Z,2.97
2017-10-23T02:31:22.463Z,3.40
2017-10-23T02:36:25.704Z,3.57
2017-10-23T02:41:28.974Z,4.30
2017-10-23T02:46:32.223Z,3.10
2017-10-23T02:51:35.483Z,3.30
2017-10-23T02:56:39.508Z,4.17
2017-10-23T03:01:43.518Z,3.80
2017-10-23T03:06:46.777Z,3.23
2017-10-23T03:11:50.055Z,2.87
2017-10-23T03:16:53.339Z,3.50
2017-10-23T03:21:56.640Z,3.73
2017-10-23T03:26:59.905Z,3.93
2017-10-23T03:32:03.169Z,3.23
2017-10-23T03:37:06.725Z,3.50
2017-10-23T03:42:10.006Z,2.47
2017-10-23T03:47:13.251Z,3.30
2017-10-23T03:52:16.530Z,3.50
2017-10-23T03:57:20.543Z,3.43
2017-10-23T04:02:23.913Z,3.00
2017-10-23T04:07:27.187Z,3.00
2017-10-23T04:12:30.469Z,3.07
2017-10-23T04:17:33.762Z,3.43
2017-10-23T04:22:37.021Z,3.90
2017-10-23T04:27:41.040Z,3.67
2017-10-23T04:32:44.316Z,2.70
2017-10-23T04:37:47.639Z,2.60
2017-10-23T04:42:50.907Z,3.60
2017-10-23T04:47:54.195Z,2.80
2017-10-23T04:52:58.344Z,2.70
2017-10-23T04:58:01.627Z,2.93
2017-10-23T05:03:04.925Z,2.70
2017-10-23T05:08:08.194Z,2.90
2017-10-23T05:13:11.460Z,2.73
2017-10-23T05:18:14.735Z,2.80
2017-10-23T05:23:18.786Z,3.17
2017-10-23T05:28:22.092Z,3.30
2017-10-23T05:33:26.120Z,3.63
2017-10-23T05:38:29.386Z,3.00
2017-10-23T05:43:32.635Z,3.00
2017-10-23T05:48:35.927Z,3.40
2017-10-23T05:53:39.180Z,3.40
2017-10-23T05:58:42.463Z,8.30
2017-10-23T06:03:45.783Z,3.57
2017-10-23T06:08:49.090Z,3.20
2017-10-23T06:13:53.119Z,3.00
2017-10-23T06:18:57.154Z,3.23
2017-10-23T06:24:01.188Z,2.90
2017-10-23T06:29:04.453Z,2.87
2017-10-23T06:34:07.731Z,2.57
2017-10-23T06:39:11.019Z,3.30
2017-10-23T06:44:14.283Z,3.27
2017-10-23T06:49:17.563Z,4.23
2017-10-23T06:54:20.970Z,2.93
2017-10-23T06:59:24.247Z,3.33
2017-10-23T07:04:28.264Z,3.67
2017-10-23T07:09:31.517Z,3.40
2017-10-23T07:14:34.795Z,3.73
2017-10-23T07:19:38.063Z,3.00
2017-10-23T07:24:41.335Z,4.50
2017-10-23T07:29:44.604Z,3.50
2017-10-23T07:34:47.895Z,3.73
2017-10-23T07:39:51.158Z,4.13
2017-10-23T07:44:54.428Z,3.30
2017-10-23T07:49:57.692Z,4.97
2017-10-23T07:55:00.946Z,2.80
2017-10-23T08:00:04.236Z,2.93
2017-10-23T08:05:07.776Z,3.27
2017-10-23T08:10:11.037Z,3.00
2017-10-23T08:15:14.319Z,3.30
2017-10-23T08:20:18.401Z,3.10
2017-10-23T08:25:21.837Z,6.40
2017-10-23T08:30:25.166Z,4.00
2017-10-23T08:35:28.426Z,3.13
2017-10-23T08:40:31.907Z,3.10
2017-10-23T08:45:36.094Z,3.30
2017-10-23T08:50:39.369Z,3.40
2017-10-23T08:55:42.638Z,3.37
2017-10-23T09:00:45.952Z,2.50
2017-10-23T09:05:49.262Z,4.00
2017-10-23T09:10:52.586Z,3.30
2017-10-23T09:15:55.859Z,5.20
2017-10-23T09:20:59.357Z,3.37
2017-10-23T09:26:02.599Z,3.20
2017-10-23T09:31:06.661Z,4.30
2017-10-23T09:36:10.118Z,2.90
2017-10-23T09:41:13.387Z,3.93
2017-10-23T09:46:16.679Z,3.90
2017-10-23T09:51:20.723Z,3.60
2017-10-23T09:56:24.043Z,4.63
2017-10-23T10:01:27.319Z,3.80
2017-10-23T10:06:34.022Z,4.10
2017-10-23T10:11:39.163Z,3.70
2017-10-23T10:16:42.652Z,4.27
2017-10-23T10:21:46.228Z,5.40
2017-10-23T10:26:49.504Z,4.90
2017-10-23T10:31:52.901Z,5.43
2017-10-23T10:36:56.316Z,4.67
2017-10-23T10:41:59.619Z,4.27
2017-10-23T10:47:03.375Z,5.53
2017-10-23T10:52:06.710Z,4.20
2017-10-23T10:57:10.085Z,4.53
2017-10-23T11:02:13.520Z,4.30
2017-10-23T11:07:16.798Z,4.00
2017-10-23T11:12:20.036Z,4.40
2017-10-23T11:17:23.322Z,4.83
2017-10-23T11:22:26.581Z,6.00
2017-10-23T11:27:30.031Z,5.13
2017-10-23T11:32:33.280Z,4.97
2017-10-23T11:37:36.540Z,5.70
2017-10-23T11:42:39.812Z,5.20
2017-10-23T11:47:43.060Z,4.93
2017-10-23T11:52:46.317Z,5.13
2017-10-23T11:57:50.353Z,5.60
2017-10-23T12:02:53.621Z,5.67
2017-10-23T12:07:56.869Z,6.10
2017-10-23T12:13:00.337Z,6.00
2017-10-23T12:18:03.579Z,5.67
2017-10-23T12:23:07.628Z,6.00
2017-10-23T12:28:10.920Z,6.07
2017-10-23T12:33:14.171Z,6.77
2017-10-23T12:38:17.438Z,5.97
2017-10-23T12:43:20.712Z,7.30
2017-10-23T12:48:23.984Z,6.73
2017-10-23T12:53:27.274Z,6.30
2017-10-23T12:58:31.313Z,5.80
2017-10-23T13:03:34.587Z,6.80
2017-10-23T13:08:37.868Z,6.60
2017-10-23T13:13:41.109Z,6.03
2017-10-23T13:18:44.397Z,5.40
2017-10-23T13:23:47.639Z,4.90
2017-10-23T13:28:50.934Z,5.13
2017-10-23T13:33:54.197Z,5.20
2017-10-23T13:38:57.534Z,5.97
2017-10-23T13:44:00.771Z,6.10
2017-10-23T13:49:04.080Z,6.13
2017-10-23T13:54:07.374Z,5.37
2017-10-23T13:59:10.632Z,4.73
2017-10-23T14:04:13.896Z,5.10
2017-10-23T14:09:17.164Z,3.77
2017-10-23T14:14:20.467Z,3.47
2017-10-23T14:19:23.751Z,3.17
2017-10-23T14:24:27.800Z,2.43
2017-10-23T14:29:31.073Z,2.67
2017-10-23T14:34:34.363Z,2.50
2017-10-23T14:39:37.711Z,5.90
2017-10-23T14:44:41.354Z,3.40
2017-10-23T14:49:44.635Z,3.37
2017-10-23T14:54:47.934Z,3.27
2017-10-23T14:59:51.184Z,2.90
2017-10-23T15:04:54.458Z,3.13
2017-10-23T15:09:57.747Z,2.97
2017-10-23T15:15:01.000Z,3.00
2017-10-23T15:20:05.049Z,2.80
2017-10-23T15:25:08.331Z,3.53
2017-10-23T15:30:11.607Z,2.80
2017-10-23T15:35:14.891Z,3.03
2017-10-23T15:40:18.899Z,3.33
2017-10-23T15:45:22.155Z,3.10
2017-10-23T15:50:25.416Z,2.90
2017-10-23T15:55:29.579Z,3.23
2017-10-23T16:00:32.843Z,2.43
2017-10-23T16:05:36.878Z,3.47
2017-10-23T16:10:40.922Z,2.70
2017-10-23T16:15:44.180Z,2.97
2017-10-23T16:20:47.431Z,3.17
2017-10-23T16:25:50.692Z,3.73
2017-10-23T16:30:53.945Z,2.90
2017-10-23T16:35:57.208Z,3.87
2017-10-23T16:41:00.475Z,4.37
2017-10-23T16:46:03.760Z,3.20
2017-10-23T16:51:07.868Z,3.97
2017-10-23T16:56:11.292Z,4.33
2017-10-23T17:01:14.624Z,4.33
2017-10-23T17:06:17.900Z,20.80
2017-10-23T17:11:21.174Z,20.60
2017-10-23T17:16:24.456Z,6.47
2017-10-23T17:21:28.528Z,5.73
2017-10-23T17:26:31.767Z,6.50
2017-10-23T17:31:35.031Z,5.90
2017-10-23T17:36:38.320Z,6.00
2017-10-23T17:41:42.334Z,6.90
2017-10-23T17:46:45.732Z,7.50
2017-10-23T17:51:49.764Z,8.57
2017-10-23T17:56:53.026Z,7.17
2017-10-23T18:01:56.308Z,17.90
2017-10-23T18:06:59.579Z,8.70
2017-10-23T18:12:04.154Z,8.00
2017-10-23T18:17:07.432Z,7.70
2017-10-23T18:22:10.687Z,8.30
2017-10-23T18:27:13.964Z,9.87
2017-10-23T18:32:17.252Z,8.80
2017-10-23T18:37:20.564Z,8.70
2017-10-23T18:42:23.931Z,8.77
2017-10-23T18:47:27.199Z,10.43
2017-10-23T18:52:30.739Z,10.87
2017-10-23T18:57:34.779Z,9.17
2017-10-23T19:02:38.090Z,10.10
2017-10-23T19:07:42.234Z,9.97
2017-10-23T19:12:45.607Z,10.70
2017-10-23T19:17:48.888Z,9.80
2017-10-23T19:22:52.287Z,9.40
2017-10-23T19:27:55.595Z,9.10
2017-10-23T19:32:58.850Z,9.13
2017-10-23T19:38:02.116Z,8.13
2017-10-23T19:43:05.376Z,8.43
2017-10-23T19:48:08.625Z,7.60
2017-10-23T19:53:11.920Z,8.33
2017-10-23T19:58:15.205Z,8.03
2017-10-23T20:03:18.461Z,7.30
2017-10-23T20:08:21.724Z,8.00
2017-10-23T20:13:25.782Z,7.20
2017-10-23T20:18:29.041Z,7.50
2017-10-23T20:23:32.293Z,9.37
2017-10-23T20:28:35.558Z,8.63
2017-10-23T20:33:38.830Z,10.07
2017-10-23T20:38:42.091Z,9.20
2017-10-23T20:43:45.544Z,9.37
2017-10-23T20:48:48.820Z,9.40
2017-10-23T20:53:52.091Z,8.77
2017-10-23T20:58:56.123Z,9.37
2017-10-23T21:03:59.408Z,9.27
2017-10-23T21:09:02.664Z,8.70
2017-10-23T21:14:05.969Z,10.47
2017-10-23T21:19:09.235Z,11.23
2017-10-23T21:24:12.503Z,11.47
2017-10-23T21:29:16.578Z,11.93
2017-10-23T21:34:19.886Z,13.07
2017-10-23T21:39:23.168Z,12.37
2017-10-23T21:44:26.532Z,12.97
2017-10-23T21:49:29.887Z,14.07
2017-10-23T21:54:33.183Z,13.80
2017-10-23T21:59:36.464Z,14.70
2017-10-23T22:04:39.735Z,14.47
2017-10-23T22:09:43.003Z,15.50
2017-10-23T22:14:46.292Z,15.53
2017-10-23T22:19:49.551Z,14.53
2017-10-23T22:24:53.578Z,13.43
2017-10-23T22:29:57.602Z,12.23
2017-10-23T22:35:01.644Z,12.63
2017-10-23T22:40:04.912Z,11.63
2017-10-23T22:45:08.159Z,11.27
2017-10-23T22:50:12.188Z,12.10
2017-10-23T22:55:16.211Z,12.67
2017-10-23T23:00:20.248Z,11.80
2017-10-23T23:05:23.515Z,11.53
2017-10-23T23:10:27.162Z,10.27
2017-10-23T23:15:31.187Z,10.30
2017-10-23T23:20:35.219Z,9.63
2017-10-23T23:25:38.478Z,10.33
2017-10-23T23:30:41.755Z,9.57
2017-10-23T23:35:45.962Z,9.07
2017-10-23T23:40:49.245Z,8.53
2017-10-23T23:45:52.490Z,8.20
2017-10-23T23:50:56.502Z,8.27
2017-10-23T23:55:59.775Z,7.87
